createdAt,value
2024-02-19T00:00:53.560Z,98.30
2024-02-19T00:03:20.573Z,101.30
2024-02-19T00:05:47.308Z,94.30
2024-02-19T00:08:14.317Z,100.70
2024-02-19T00:10:41.201Z,93.50
2024-02-19T00:13:07.989Z,91.80
2024-02-19T00:15:34.862Z,94.00
2024-02-19T00:18:02.406Z,86.20
2024-02-19T00:20:29.316Z,90.40
2024-02-19T00:22:56.160Z,90.70
2024-02-19T00:25:22.831Z,89.10
2024-02-19T00:27:49.832Z,86.10
2024-02-19T00:30:16.602Z,86.70
2024-02-19T00:32:43.290Z,87.40
2024-02-19T00:35:10.100Z,84.70
2024-02-19T00:37:36.832Z,82.70
2024-02-19T00:40:04.244Z,90.20
2024-02-19T00:42:30.934Z,87.30
2024-02-19T00:44:57.585Z,87.20
2024-02-19T00:47:24.592Z,88.00
2024-02-19T00:49:51.322Z,84.60
2024-02-19T00:52:18.286Z,86.10
2024-02-19T00:54:45.436Z,83.50
2024-02-19T00:57:12.535Z,82.60
2024-02-19T00:59:39.279Z,79.50
2024-02-19T01:02:06.275Z,77.40
2024-02-19T01:04:33.336Z,78.50
2024-02-19T01:07:00.398Z,77.30
2024-02-19T01:09:27.167Z,80.70
2024-02-19T01:11:53.914Z,78.50
2024-02-19T01:14:20.550Z,76.40
2024-02-19T01:16:47.203Z,81.40
2024-02-19T01:19:14.221Z,78.10
2024-02-19T01:21:41.107Z,65.30
2024-02-19T01:24:07.939Z,64.20
2024-02-19T01:26:34.695Z,77.50
2024-02-19T01:29:01.534Z,79.50
2024-02-19T01:31:28.497Z,74.40
2024-02-19T01:33:55.578Z,73.40
2024-02-19T01:36:22.524Z,74.00
2024-02-19T01:38:49.249Z,69.90
2024-02-19T01:41:16.505Z,77.30
2024-02-19T01:43:43.235Z,67.70
2024-02-19T01:46:10.823Z,71.30
2024-02-19T01:48:38.200Z,68.60
2024-02-19T01:51:05.144Z,71.40
2024-02-19T01:53:31.956Z,67.20
2024-02-19T01:55:59.737Z,65.80
2024-02-19T01:58:27.323Z,64.30
2024-02-19T02:00:55.007Z,66.70
2024-02-19T02:03:24.109Z,66.50
2024-02-19T02:05:50.944Z,62.30
2024-02-19T02:08:18.213Z,61.60
2024-02-19T02:10:45.010Z,59.60
2024-02-19T02:13:11.873Z,61.60
2024-02-19T02:15:38.723Z,58.00
2024-02-19T02:18:06.063Z,56.60
2024-02-19T02:20:33.534Z,57.50
2024-02-19T02:23:00.470Z,56.20
2024-02-19T02:25:27.251Z,61.60
2024-02-19T02:27:54.259Z,59.30
2024-02-19T02:30:21.137Z,56.50
2024-02-19T02:32:48.358Z,59.20
2024-02-19T02:35:15.133Z,60.00
2024-02-19T02:37:41.781Z,57.10
2024-02-19T02:40:09.176Z,57.40
2024-02-19T02:42:36.002Z,54.30
2024-02-19T02:45:02.858Z,57.10
2024-02-19T02:47:29.566Z,52.60
2024-02-19T02:49:56.392Z,52.50
2024-02-19T02:52:23.682Z,52.20
2024-02-19T02:54:50.497Z,53.70
2024-02-19T02:57:17.273Z,51.90
2024-02-19T02:59:44.181Z,51.50
2024-02-19T03:02:11.489Z,46.90
2024-02-19T03:04:38.584Z,47.80
2024-02-19T03:07:05.823Z,47.60
2024-02-19T03:09:32.846Z,48.60
2024-02-19T03:11:59.624Z,50.80
2024-02-19T03:14:26.363Z,51.00
2024-02-19T03:16:53.177Z,49.10
2024-02-19T03:19:20.025Z,50.80
2024-02-19T03:21:46.988Z,50.70
2024-02-19T03:24:14.257Z,51.30
2024-02-19T03:26:41.902Z,53.00
2024-02-19T03:29:14.885Z,49.70
2024-02-19T03:31:43.435Z,49.20
2024-02-19T03:34:10.746Z,51.10
2024-02-19T03:36:38.205Z,49.90
2024-02-19T03:39:05.880Z,51.80
2024-02-19T03:41:33.278Z,50.60
2024-02-19T03:44:00.887Z,50.00
2024-02-19T03:46:27.743Z,50.20
2024-02-19T03:48:57.905Z,50.30
2024-02-19T03:51:24.868Z,49.60
2024-02-19T03:53:51.875Z,49.50
2024-02-19T03:56:19.323Z,48.00
2024-02-19T03:58:46.878Z,47.10
2024-02-19T04:01:14.812Z,48.20
2024-02-19T04:03:41.804Z,48.90
2024-02-19T04:06:09.004Z,52.70
2024-02-19T04:08:35.808Z,54.70
2024-02-19T04:11:03.049Z,53.00
2024-02-19T04:13:29.759Z,56.10
2024-02-19T04:15:56.748Z,49.70
2024-02-19T04:18:24.152Z,50.10
2024-02-19T04:20:51.199Z,52.60
2024-02-19T04:23:18.018Z,52.60
2024-02-19T04:25:44.797Z,53.50
2024-02-19T04:28:11.871Z,50.40
2024-02-19T04:30:38.935Z,52.40
2024-02-19T04:33:06.174Z,53.90
2024-02-19T04:35:33.277Z,56.60
2024-02-19T04:38:00.141Z,56.90
2024-02-19T04:40:27.064Z,59.40
2024-02-19T04:42:53.998Z,58.70
2024-02-19T04:45:21.299Z,59.90
2024-02-19T04:47:48.072Z,60.50
2024-02-19T04:50:15.555Z,61.40
2024-02-19T04:52:42.360Z,64.20
2024-02-19T04:55:09.719Z,63.50
2024-02-19T04:57:36.543Z,59.00
2024-02-19T05:00:03.496Z,60.70
2024-02-19T05:02:30.240Z,62.10
2024-02-19T05:04:57.146Z,63.30
2024-02-19T05:07:24.010Z,69.80
2024-02-19T05:09:51.312Z,72.40
2024-02-19T05:12:18.135Z,70.40
2024-02-19T05:14:44.897Z,68.20
2024-02-19T05:17:11.727Z,64.00
2024-02-19T05:19:38.506Z,66.80
2024-02-19T05:22:05.316Z,67.70
2024-02-19T05:24:32.472Z,68.30
2024-02-19T05:26:59.219Z,67.40
2024-02-19T05:29:26.076Z,66.70
2024-02-19T05:31:52.953Z,68.20
2024-02-19T05:34:19.946Z,68.40
2024-02-19T05:36:47.165Z,70.60
2024-02-19T05:39:13.973Z,66.30
2024-02-19T05:41:41.155Z,69.00
2024-02-19T05:44:07.884Z,69.70
2024-02-19T05:46:34.645Z,66.20
2024-02-19T05:49:02.242Z,66.90
2024-02-19T05:51:29.238Z,71.60
2024-02-19T05:53:56.564Z,81.00
2024-02-19T05:56:23.747Z,80.40
2024-02-19T05:58:50.497Z,78.50
2024-02-19T06:01:18.529Z,76.60
2024-02-19T06:03:45.683Z,72.50
2024-02-19T06:06:12.875Z,80.20
2024-02-19T06:08:39.849Z,84.90
2024-02-19T06:11:06.840Z,81.70
2024-02-19T06:13:34.026Z,72.40
2024-02-19T06:16:00.865Z,70.80
2024-02-19T06:18:27.732Z,74.20
2024-02-19T06:20:54.576Z,76.50
2024-02-19T06:23:21.322Z,68.30
2024-02-19T06:25:48.205Z,67.00
2024-02-19T06:28:14.943Z,63.00
2024-02-19T06:30:42.022Z,63.90
2024-02-19T06:33:09.124Z,62.20
2024-02-19T06:35:36.184Z,58.10
2024-02-19T06:38:03.344Z,62.00
2024-02-19T06:40:30.147Z,63.90
2024-02-19T06:42:57.136Z,59.40
2024-02-19T06:45:24.085Z,56.80
2024-02-19T06:47:51.735Z,58.90
2024-02-19T06:50:18.624Z,62.20
2024-02-19T06:52:46.065Z,66.00
2024-02-19T06:55:17.978Z,64.60
2024-02-19T06:57:45.515Z,66.20
2024-02-19T07:00:13.655Z,69.90
2024-02-19T07:02:41.041Z,66.30
2024-02-19T07:05:09.296Z,65.30
2024-02-19T07:07:37.044Z,64.00
2024-02-19T07:10:04.256Z,62.20
2024-02-19T07:12:31.600Z,63.20
2024-02-19T07:14:58.328Z,61.60
2024-02-19T07:17:25.624Z,61.00
2024-02-19T07:19:52.360Z,60.30
2024-02-19T07:22:19.178Z,57.10
2024-02-19T07:24:46.041Z,55.60
2024-02-19T07:27:12.878Z,57.50
2024-02-19T07:29:39.707Z,61.20
2024-02-19T07:32:06.970Z,69.30
2024-02-19T07:34:33.831Z,65.30
2024-02-19T07:37:00.587Z,64.70
2024-02-19T07:39:27.440Z,61.90
2024-02-19T07:41:54.264Z,57.90
2024-02-19T07:44:21.005Z,58.50
2024-02-19T07:46:48.090Z,57.00
2024-02-19T07:49:15.023Z,53.00
2024-02-19T07:51:42.241Z,54.60
2024-02-19T07:54:09.295Z,49.60
2024-02-19T07:56:36.142Z,57.50
2024-02-19T07:59:02.856Z,49.20
2024-02-19T08:01:29.544Z,48.40
2024-02-19T08:03:56.479Z,55.10
2024-02-19T08:06:23.314Z,46.90
2024-02-19T08:08:50.193Z,50.90
2024-02-19T08:11:16.943Z,52.40
2024-02-19T08:13:43.911Z,50.80
2024-02-19T08:16:11.880Z,47.50
2024-02-19T08:18:38.999Z,47.70
2024-02-19T08:21:06.320Z,44.70
2024-02-19T08:23:33.143Z,51.80
2024-02-19T08:25:59.867Z,51.90
2024-02-19T08:28:26.762Z,49.40
2024-02-19T08:30:53.538Z,44.00
2024-02-19T08:33:20.118Z,42.30
2024-02-19T08:35:46.830Z,42.30
2024-02-19T08:38:13.562Z,39.60
2024-02-19T08:40:40.388Z,43.10
2024-02-19T08:43:07.236Z,39.70
2024-02-19T08:45:37.008Z,38.20
2024-02-19T08:48:05.561Z,38.90
2024-02-19T08:50:32.556Z,39.10
2024-02-19T08:52:59.199Z,43.40
2024-02-19T08:55:26.088Z,53.10
2024-02-19T08:57:52.853Z,50.70
2024-02-19T09:00:19.740Z,46.10
2024-02-19T09:02:46.373Z,49.30
2024-02-19T09:05:13.436Z,50.10
2024-02-19T09:07:40.248Z,50.30
2024-02-19T09:10:08.154Z,47.50
2024-02-19T09:12:35.616Z,47.10
2024-02-19T09:15:02.467Z,45.00
2024-02-19T09:17:29.332Z,41.80
2024-02-19T09:19:56.113Z,44.20
2024-02-19T09:22:23.092Z,48.00
2024-02-19T09:24:50.205Z,44.10
2024-02-19T09:27:17.223Z,44.60
2024-02-19T09:29:43.968Z,45.50
2024-02-19T09:32:10.707Z,45.60
2024-02-19T09:34:37.566Z,46.80
2024-02-19T09:37:04.776Z,49.10
2024-02-19T09:39:31.571Z,45.40
2024-02-19T09:41:58.182Z,42.30
2024-02-19T09:44:25.159Z,47.80
2024-02-19T09:46:57.754Z,66.30
2024-02-19T09:49:26.524Z,61.90
2024-02-19T09:51:58.053Z,41.20
2024-02-19T09:54:24.935Z,40.70
2024-02-19T09:56:52.028Z,40.40
2024-02-19T09:59:18.743Z,41.90
2024-02-19T10:01:45.593Z,39.70
2024-02-19T10:04:13.031Z,39.10
2024-02-19T10:06:43.111Z,62.70
2024-02-19T10:09:11.146Z,57.90
2024-02-19T10:11:38.401Z,49.50
2024-02-19T10:14:05.780Z,53.90
2024-02-19T10:16:32.941Z,50.90
2024-02-19T10:19:06.484Z,57.70
2024-02-19T10:21:34.185Z,193.80
2024-02-19T10:24:01.305Z,68.20
2024-02-19T10:26:28.262Z,65.20
2024-02-19T10:28:56.275Z,55.50
2024-02-19T10:31:23.397Z,58.80
2024-02-19T10:33:50.869Z,63.70
2024-02-19T10:36:19.062Z,63.90
2024-02-19T10:38:45.817Z,100.40
2024-02-19T10:41:13.691Z,76.50
2024-02-19T10:43:40.694Z,76.50
2024-02-19T10:46:07.521Z,66.60
2024-02-19T10:48:34.615Z,45.70
2024-02-19T10:51:05.170Z,55.00
2024-02-19T10:53:32.222Z,48.20
2024-02-19T10:56:36.118Z,37.50
2024-02-19T10:59:03.114Z,35.90
2024-02-19T11:01:46.017Z,36.00
2024-02-19T11:04:16.113Z,40.70
2024-02-19T11:06:54.081Z,40.90
2024-02-19T11:09:29.238Z,39.30
2024-02-19T11:11:59.426Z,37.60
2024-02-19T11:14:35.915Z,39.30
2024-02-19T11:17:04.511Z,39.70
2024-02-19T11:19:38.930Z,38.10
2024-02-19T11:22:11.610Z,39.50
2024-02-19T11:24:40.999Z,35.20
2024-02-19T11:27:08.463Z,34.70
2024-02-19T11:29:43.516Z,39.80
2024-02-19T11:32:15.156Z,37.00
2024-02-19T11:34:41.917Z,46.60
2024-02-19T11:37:11.438Z,40.40
2024-02-19T11:39:38.254Z,35.90
2024-02-19T11:42:05.114Z,36.50
2024-02-19T11:44:33.300Z,40.70
2024-02-19T11:47:00.570Z,40.60
2024-02-19T11:49:27.893Z,35.00
2024-02-19T11:52:04.311Z,56.40
2024-02-19T11:54:35.068Z,51.00
2024-02-19T11:57:02.939Z,34.60
2024-02-19T11:59:31.372Z,39.00
2024-02-19T12:01:58.229Z,37.90
2024-02-19T12:04:27.858Z,38.90
2024-02-19T12:06:55.032Z,46.30
2024-02-19T12:09:22.231Z,44.00
2024-02-19T12:11:48.901Z,46.20
2024-02-19T12:14:15.839Z,52.40
2024-02-19T12:16:42.563Z,63.20
2024-02-19T12:19:09.623Z,53.90
2024-02-19T12:21:36.481Z,54.60
2024-02-19T12:24:03.413Z,52.50
2024-02-19T12:26:31.189Z,50.80
2024-02-19T12:28:59.503Z,46.00
2024-02-19T12:31:26.818Z,43.70
2024-02-19T12:33:55.266Z,42.30
2024-02-19T12:36:22.408Z,42.50
2024-02-19T12:38:49.528Z,45.10
2024-02-19T12:41:17.531Z,44.10
2024-02-19T12:43:45.963Z,44.90
2024-02-19T12:46:14.717Z,43.10
2024-02-19T12:48:42.691Z,41.00
2024-02-19T12:51:10.608Z,43.30
2024-02-19T12:53:37.682Z,42.60
2024-02-19T12:56:05.145Z,61.20
2024-02-19T12:58:32.331Z,60.30
2024-02-19T13:01:00.001Z,48.20
2024-02-19T13:03:28.855Z,53.90
2024-02-19T13:05:55.729Z,117.90
2024-02-19T13:08:22.559Z,82.60
2024-02-19T13:10:49.322Z,42.40
2024-02-19T13:13:16.074Z,40.10
2024-02-19T13:15:45.219Z,115.60
2024-02-19T13:18:12.872Z,57.90
2024-02-19T13:20:41.208Z,27.00
2024-02-19T13:23:08.045Z,26.40
2024-02-19T13:25:34.829Z,44.10
2024-02-19T13:28:02.004Z,46.40
2024-02-19T13:30:28.905Z,55.70
2024-02-19T13:32:55.700Z,43.60
2024-02-19T13:35:22.611Z,35.90
2024-02-19T13:37:49.718Z,31.30
2024-02-19T13:40:16.582Z,13.90
2024-02-19T13:42:43.512Z,13.10
2024-02-19T13:45:10.846Z,11.60
2024-02-19T13:47:41.953Z,10.40
2024-02-19T13:50:09.841Z,12.10
2024-02-19T13:52:36.621Z,12.90
2024-02-19T13:55:03.499Z,12.00
2024-02-19T13:57:30.789Z,11.40
2024-02-19T13:59:57.826Z,11.00
2024-02-19T14:02:24.746Z,13.40
2024-02-19T14:04:51.562Z,14.10
2024-02-19T14:07:18.728Z,15.30
2024-02-19T14:09:45.452Z,16.60
2024-02-19T14:12:12.386Z,15.40
2024-02-19T14:14:39.124Z,13.80
2024-02-19T14:17:06.276Z,11.80
2024-02-19T14:19:36.908Z,11.60
2024-02-19T14:22:03.793Z,10.90
2024-02-19T14:24:30.731Z,10.40
2024-02-19T14:26:57.446Z,12.20
2024-02-19T14:29:24.208Z,13.70
2024-02-19T14:31:50.845Z,15.20
2024-02-19T14:34:17.690Z,14.60
2024-02-19T14:36:44.830Z,14.70
2024-02-19T14:39:11.691Z,12.30
2024-02-19T14:41:38.433Z,12.10
2024-02-19T14:44:05.279Z,11.80
2024-02-19T14:46:32.324Z,12.80
2024-02-19T14:48:59.396Z,12.20
2024-02-19T14:51:26.404Z,13.00
2024-02-19T14:53:53.489Z,12.30
2024-02-19T14:56:20.243Z,12.40
2024-02-19T14:58:47.212Z,13.70
2024-02-19T15:01:14.228Z,17.20
2024-02-19T15:03:41.023Z,19.00
2024-02-19T15:06:08.009Z,18.10
2024-02-19T15:08:34.877Z,16.50
2024-02-19T15:11:01.653Z,20.10
2024-02-19T15:13:28.707Z,17.70
2024-02-19T15:15:55.901Z,15.70
2024-02-19T15:18:23.011Z,15.70
2024-02-19T15:20:49.824Z,19.60
2024-02-19T15:23:16.675Z,23.20
2024-02-19T15:25:43.638Z,23.50
2024-02-19T15:28:10.441Z,24.10
2024-02-19T15:30:37.417Z,24.60
2024-02-19T15:33:04.250Z,20.50
2024-02-19T15:35:31.256Z,23.50
2024-02-19T15:37:58.081Z,26.40
2024-02-19T15:40:24.902Z,36.00
2024-02-19T15:42:51.846Z,25.20
2024-02-19T15:45:18.734Z,24.80
2024-02-19T15:47:45.513Z,20.00
2024-02-19T15:50:12.466Z,18.60
2024-02-19T15:52:39.507Z,14.30
2024-02-19T15:55:07.049Z,14.40
2024-02-19T15:57:34.193Z,12.60
2024-02-19T16:00:01.235Z,13.40
2024-02-19T16:02:28.192Z,11.80
2024-02-19T16:04:55.349Z,9.90
2024-02-19T16:07:25.139Z,9.80
2024-02-19T16:09:53.870Z,10.00
2024-02-19T16:12:20.468Z,18.30
2024-02-19T16:14:47.218Z,22.70
2024-02-19T16:17:13.893Z,23.80
2024-02-19T16:19:41.084Z,22.30
2024-02-19T16:22:08.366Z,25.30
2024-02-19T16:24:35.854Z,24.70
2024-02-19T16:27:03.449Z,21.00
2024-02-19T16:29:30.557Z,21.30
2024-02-19T16:31:57.673Z,19.40
2024-02-19T16:34:24.816Z,15.60
2024-02-19T16:36:51.726Z,17.20
2024-02-19T16:39:18.499Z,17.80
2024-02-19T16:41:45.077Z,15.20
2024-02-19T16:44:11.729Z,15.10
2024-02-19T16:46:38.654Z,16.60
2024-02-19T16:49:05.586Z,16.50
2024-02-19T16:51:32.381Z,18.40
2024-02-19T16:53:59.131Z,21.00
2024-02-19T16:56:25.880Z,17.30
2024-02-19T16:58:52.730Z,22.10
2024-02-19T17:01:19.614Z,19.50
2024-02-19T17:03:46.637Z,27.10
2024-02-19T17:06:13.542Z,36.80
2024-02-19T17:08:40.443Z,31.70
2024-02-19T17:11:07.220Z,29.50
2024-02-19T17:13:34.231Z,26.00
2024-02-19T17:16:01.030Z,25.90
2024-02-19T17:18:27.823Z,27.20
2024-02-19T17:20:54.899Z,21.00
2024-02-19T17:23:21.792Z,21.80
2024-02-19T17:25:48.944Z,21.70
2024-02-19T17:28:15.734Z,18.30
2024-02-19T17:30:42.798Z,16.90
2024-02-19T17:33:15.683Z,16.50
2024-02-19T17:35:45.568Z,18.90
2024-02-19T17:38:12.792Z,16.80
2024-02-19T17:40:39.749Z,75.80
2024-02-19T17:43:06.588Z,301.20
2024-02-19T17:45:33.574Z,131.40
2024-02-19T17:48:00.609Z,70.80
2024-02-19T17:50:27.666Z,53.60
2024-02-19T17:52:54.413Z,65.30
2024-02-19T17:55:21.378Z,48.00
2024-02-19T17:57:48.371Z,32.70
2024-02-19T18:00:15.605Z,35.80
2024-02-19T18:02:42.540Z,30.80
2024-02-19T18:05:09.393Z,39.40
2024-02-19T18:07:36.310Z,27.10
2024-02-19T18:10:04.273Z,26.80
2024-02-19T18:12:30.912Z,28.80
2024-02-19T18:14:57.616Z,25.90
2024-02-19T18:17:24.326Z,58.30
2024-02-19T18:19:51.247Z,50.20
2024-02-19T18:22:18.352Z,75.90
2024-02-19T18:24:45.180Z,104.90
2024-02-19T18:27:11.858Z,91.50
2024-02-19T18:29:38.602Z,105.60
2024-02-19T18:32:05.887Z,84.10
2024-02-19T18:34:32.923Z,119.40
2024-02-19T18:36:59.709Z,80.90
2024-02-19T18:39:27.593Z,130.10
2024-02-19T18:41:54.441Z,80.00
2024-02-19T18:44:21.674Z,76.60
2024-02-19T18:46:48.533Z,59.50
2024-02-19T18:49:15.748Z,32.20
2024-02-19T18:51:42.864Z,25.50
2024-02-19T18:54:09.599Z,26.00
2024-02-19T18:56:36.342Z,15.90
2024-02-19T18:59:03.087Z,13.00
2024-02-19T19:01:29.940Z,10.70
2024-02-19T19:03:56.957Z,8.70
2024-02-19T19:06:23.784Z,10.30
2024-02-19T19:08:50.695Z,8.90
2024-02-19T19:11:17.476Z,10.00
2024-02-19T19:13:44.198Z,10.10
2024-02-19T19:16:11.021Z,10.20
2024-02-19T19:18:37.848Z,12.20
2024-02-19T19:21:04.936Z,13.40
2024-02-19T19:23:31.687Z,13.50
2024-02-19T19:25:58.410Z,15.00
2024-02-19T19:28:25.111Z,7.50
2024-02-19T19:30:51.955Z,8.60
2024-02-19T19:33:19.355Z,6.90
2024-02-19T19:35:46.362Z,6.50
2024-02-19T19:38:13.206Z,6.30
2024-02-19T19:40:39.922Z,6.20
2024-02-19T19:43:07.034Z,7.60
2024-02-19T19:45:33.945Z,6.70
2024-02-19T19:48:00.709Z,6.00
2024-02-19T19:50:27.881Z,5.80
2024-02-19T19:52:54.520Z,6.80
2024-02-19T19:55:21.647Z,6.60
2024-02-19T19:57:48.706Z,4.60
2024-02-19T20:00:16.392Z,5.60
2024-02-19T20:02:44.796Z,6.50
2024-02-19T20:05:12.822Z,4.70
2024-02-19T20:07:39.985Z,5.60
2024-02-19T20:10:07.415Z,5.50
2024-02-19T20:12:34.938Z,4.80
2024-02-19T20:15:02.024Z,3.70
2024-02-19T20:17:28.883Z,3.90
2024-02-19T20:19:55.809Z,3.60
2024-02-19T20:22:22.586Z,3.60
2024-02-19T20:24:49.460Z,3.50
2024-02-19T20:27:16.278Z,4.80
2024-02-19T20:29:42.913Z,4.60
2024-02-19T20:32:09.858Z,4.90
2024-02-19T20:34:37.042Z,4.20
2024-02-19T20:37:04.096Z,4.20
2024-02-19T20:39:31.149Z,3.70
2024-02-19T20:41:57.855Z,3.50
2024-02-19T20:44:24.559Z,3.60
2024-02-19T20:46:51.409Z,3.90
2024-02-19T20:49:18.747Z,3.70
2024-02-19T20:51:45.634Z,3.10
2024-02-19T20:54:12.588Z,3.30
2024-02-19T20:56:39.851Z,3.10
2024-02-19T20:59:06.493Z,3.70
2024-02-19T21:01:33.399Z,3.70
2024-02-19T21:04:00.972Z,3.50
2024-02-19T21:06:28.044Z,3.10
2024-02-19T21:08:54.914Z,3.60
2024-02-19T21:11:22.651Z,3.00
2024-02-19T21:13:49.534Z,3.00
2024-02-19T21:16:16.211Z,3.30
2024-02-19T21:18:47.564Z,3.90
2024-02-19T21:21:22.250Z,4.20
2024-02-19T21:23:56.851Z,3.20
2024-02-19T21:26:23.637Z,3.70
2024-02-19T21:28:50.555Z,4.40
2024-02-19T21:31:17.542Z,10.90
2024-02-19T21:33:44.721Z,7.30
2024-02-19T21:36:11.677Z,3.90
2024-02-19T21:38:38.577Z,3.40
2024-02-19T21:41:05.533Z,3.50
2024-02-19T21:43:32.257Z,3.20
2024-02-19T21:45:59.106Z,4.10
2024-02-19T21:48:26.999Z,4.80
2024-02-19T21:50:54.015Z,5.60
2024-02-19T21:53:20.857Z,4.30
2024-02-19T21:55:47.504Z,4.60
2024-02-19T21:58:14.224Z,4.00
2024-02-19T22:00:41.053Z,4.40
2024-02-19T22:03:07.957Z,4.30
2024-02-19T22:05:35.077Z,3.20
2024-02-19T22:08:01.867Z,3.90
2024-02-19T22:10:28.654Z,3.00
2024-02-19T22:12:55.475Z,3.40
2024-02-19T22:15:22.518Z,3.30
2024-02-19T22:17:49.166Z,3.20
2024-02-19T22:20:16.119Z,3.10
2024-02-19T22:22:42.826Z,5.10
2024-02-19T22:25:09.963Z,5.50
2024-02-19T22:27:36.788Z,4.90
2024-02-19T22:30:03.617Z,4.80
2024-02-19T22:32:30.178Z,5.00
2024-02-19T22:34:57.180Z,4.50
2024-02-19T22:37:24.101Z,3.40
2024-02-19T22:39:50.989Z,3.10
2024-02-19T22:42:17.689Z,2.80
2024-02-19T22:44:44.331Z,2.80
2024-02-19T22:47:11.183Z,2.50
2024-02-19T22:49:38.247Z,3.20
2024-02-19T22:52:06.420Z,2.80
2024-02-19T22:54:33.173Z,3.30
2024-02-19T22:57:00.740Z,3.10
2024-02-19T22:59:27.401Z,3.40
2024-02-19T23:01:55.155Z,3.50
2024-02-19T23:04:22.077Z,3.10
2024-02-19T23:06:49.102Z,3.00
2024-02-19T23:09:15.926Z,3.30
2024-02-19T23:11:42.722Z,3.40
2024-02-19T23:14:09.399Z,3.40
2024-02-19T23:16:36.270Z,11.60
2024-02-19T23:19:03.016Z,7.90
2024-02-19T23:21:29.748Z,3.80
2024-02-19T23:23:56.356Z,3.30
2024-02-19T23:26:23.047Z,3.40
2024-02-19T23:28:49.903Z,3.20
2024-02-19T23:31:16.730Z,3.30
2024-02-19T23:33:43.825Z,3.10
2024-02-19T23:36:10.880Z,3.00
2024-02-19T23:38:37.747Z,2.50
2024-02-19T23:41:04.600Z,2.80
2024-02-19T23:43:31.562Z,2.60
2024-02-19T23:45:59.096Z,3.20
2024-02-19T23:48:26.478Z,2.60
2024-02-19T23:50:53.304Z,2.30
2024-02-19T23:53:21.088Z,2.60
2024-02-19T23:55:47.965Z,2.70
2024-02-19T23:58:14.795Z,3.00
